createdAt,value
2022-11-16T00:02:22.616Z,93.06
2022-11-16T00:04:50.764Z,92.96
2022-11-16T00:07:18.642Z,92.96
2022-11-16T00:09:46.981Z,92.93
2022-11-16T00:12:14.821Z,92.99
2022-11-16T00:14:42.646Z,93.12
2022-11-16T00:17:10.533Z,93.07
2022-11-16T00:19:38.425Z,93.10
2022-11-16T00:22:06.293Z,93.14
2022-11-16T00:24:34.240Z,93.12
2022-11-16T00:27:02.112Z,93.08
2022-11-16T00:29:30.128Z,93.05
2022-11-16T00:31:57.980Z,92.98
2022-11-16T00:34:25.968Z,92.89
2022-11-16T00:36:53.782Z,92.98
2022-11-16T00:39:21.846Z,92.92
2022-11-16T00:41:50.444Z,92.94
2022-11-16T00:44:18.886Z,92.90
2022-11-16T00:46:46.731Z,92.82
2022-11-16T00:49:14.798Z,92.77
2022-11-16T00:51:42.780Z,92.76
2022-11-16T00:54:10.809Z,92.70
2022-11-16T00:56:39.573Z,92.78
2022-11-16T00:59:07.953Z,92.76
2022-11-16T01:01:35.953Z,92.71
2022-11-16T01:04:04.111Z,92.70
2022-11-16T01:06:32.036Z,92.73
2022-11-16T01:09:01.816Z,92.76
2022-11-16T01:11:48.646Z,92.73
2022-11-16T01:14:16.838Z,92.70
2022-11-16T01:16:44.821Z,92.69
2022-11-16T01:19:12.591Z,92.51
2022-11-16T01:21:40.459Z,92.53
2022-11-16T01:24:08.565Z,92.63
2022-11-16T01:26:36.364Z,92.56
2022-11-16T01:29:04.993Z,92.48
2022-11-16T01:31:36.554Z,92.48
2022-11-16T01:34:04.916Z,92.40
2022-11-16T01:36:33.200Z,92.41
2022-11-16T01:39:05.097Z,92.58
2022-11-16T01:41:44.067Z,92.85
2022-11-16T01:44:14.745Z,92.68
2022-11-16T01:46:53.754Z,92.26
2022-11-16T01:49:25.490Z,92.43
2022-11-16T01:52:01.113Z,92.52
2022-11-16T01:54:34.885Z,92.49
2022-11-16T01:57:07.400Z,92.43
2022-11-16T01:59:52.751Z,92.27
2022-11-16T02:02:22.250Z,92.51
2022-11-16T02:04:52.669Z,92.48
2022-11-16T02:08:18.876Z,92.59
2022-11-16T02:11:46.138Z,92.72
2022-11-16T02:14:52.670Z,92.65
2022-11-16T02:17:30.293Z,92.59
2022-11-16T02:20:19.919Z,92.76
2022-11-16T02:23:02.818Z,92.71
2022-11-16T02:26:10.105Z,92.65
2022-11-16T02:29:14.221Z,92.26
2022-11-16T02:31:59.214Z,92.47
2022-11-16T02:34:37.006Z,92.47
2022-11-16T02:37:07.910Z,92.31
2022-11-16T02:39:40.034Z,92.15
2022-11-16T02:42:14.834Z,92.09
2022-11-16T02:44:48.163Z,92.22
2022-11-16T02:47:26.554Z,92.33
2022-11-16T02:50:03.178Z,92.17
2022-11-16T02:52:31.159Z,92.27
2022-11-16T02:54:59.085Z,92.20
2022-11-16T02:58:05.602Z,92.27
2022-11-16T03:00:52.058Z,92.30
2022-11-16T03:03:39.008Z,92.43
2022-11-16T03:06:20.813Z,92.31
2022-11-16T03:08:59.213Z,92.17
2022-11-16T03:11:53.050Z,92.24
2022-11-16T03:14:46.450Z,92.40
2022-11-16T03:17:31.819Z,92.53
2022-11-16T03:20:20.720Z,92.60
2022-11-16T03:23:01.577Z,92.62
2022-11-16T03:25:37.836Z,92.48
2022-11-16T03:28:29.268Z,92.40
2022-11-16T03:31:12.783Z,92.44
2022-11-16T03:33:50.817Z,92.34
2022-11-16T03:36:25.819Z,92.39
2022-11-16T03:38:55.465Z,92.42
2022-11-16T03:41:28.473Z,92.70
2022-11-16T03:43:58.941Z,92.81
2022-11-16T03:46:26.926Z,92.82
2022-11-16T03:49:00.493Z,92.92
2022-11-16T03:51:31.205Z,93.04
2022-11-16T03:53:59.287Z,92.94
2022-11-16T03:56:27.145Z,92.99
2022-11-16T03:58:55.133Z,93.08
2022-11-16T04:01:23.201Z,93.04
2022-11-16T04:03:51.146Z,92.94
2022-11-16T04:06:38.535Z,92.81
2022-11-16T04:09:25.086Z,92.93
2022-11-16T04:12:11.468Z,92.81
2022-11-16T04:14:58.534Z,92.92
2022-11-16T04:17:45.678Z,93.03
2022-11-16T04:20:34.101Z,93.22
2022-11-16T04:23:33.487Z,93.02
2022-11-16T04:26:03.344Z,93.05
2022-11-16T04:28:34.642Z,93.04
2022-11-16T04:31:24.068Z,93.14
2022-11-16T04:34:20.813Z,93.03
2022-11-16T04:37:10.038Z,92.94
2022-11-16T04:39:38.595Z,92.86
2022-11-16T04:42:19.770Z,92.95
2022-11-16T04:45:07.329Z,93.04
2022-11-16T04:47:40.796Z,93.01
2022-11-16T04:50:08.817Z,93.01
2022-11-16T04:52:36.789Z,92.85
2022-11-16T04:55:05.778Z,92.85
2022-11-16T04:57:33.723Z,92.83
2022-11-16T05:00:01.933Z,92.73
2022-11-16T05:02:31.272Z,92.80
2022-11-16T05:04:59.432Z,92.66
2022-11-16T05:07:27.530Z,92.80
2022-11-16T05:10:01.803Z,92.78
2022-11-16T05:12:30.444Z,92.86
2022-11-16T05:15:01.334Z,93.06
2022-11-16T05:17:31.342Z,92.94
2022-11-16T05:20:18.979Z,92.86
2022-11-16T05:22:58.528Z,92.83
2022-11-16T05:25:35.300Z,93.01
2022-11-16T05:28:05.790Z,93.10
2022-11-16T05:30:35.033Z,92.99
2022-11-16T05:33:03.756Z,92.94
2022-11-16T05:35:33.630Z,92.95
2022-11-16T05:38:01.404Z,92.83
2022-11-16T05:40:29.660Z,92.97
2022-11-16T05:42:59.226Z,93.09
2022-11-16T05:45:28.672Z,93.24
2022-11-16T05:47:57.123Z,93.22
2022-11-16T05:50:25.012Z,93.28
2022-11-16T05:53:03.877Z,93.26
2022-11-16T05:55:31.671Z,93.45
2022-11-16T05:57:59.989Z,93.29
2022-11-16T06:00:27.980Z,93.30
2022-11-16T06:02:55.941Z,93.09
2022-11-16T06:05:27.730Z,92.97
2022-11-16T06:07:55.697Z,92.97
2022-11-16T06:10:23.815Z,92.66
2022-11-16T06:12:52.533Z,92.73
2022-11-16T06:15:20.373Z,92.83
2022-11-16T06:17:48.661Z,92.89
2022-11-16T06:20:17.233Z,93.02
2022-11-16T06:22:45.178Z,93.13
2022-11-16T06:25:13.218Z,92.83
2022-11-16T06:27:43.498Z,92.95
2022-11-16T06:30:12.308Z,92.94
2022-11-16T06:32:40.245Z,92.84
2022-11-16T06:35:08.815Z,92.91
2022-11-16T06:37:37.179Z,92.87
2022-11-16T06:40:06.188Z,93.05
2022-11-16T06:42:36.766Z,93.23
2022-11-16T06:45:05.688Z,93.05
2022-11-16T06:47:37.169Z,92.87
2022-11-16T06:50:05.958Z,92.88
2022-11-16T06:52:34.890Z,93.05
2022-11-16T06:55:03.695Z,93.03
2022-11-16T06:57:35.614Z,92.88
2022-11-16T07:00:05.372Z,92.84
2022-11-16T07:02:37.673Z,92.97
2022-11-16T07:05:07.279Z,92.97
2022-11-16T07:07:35.159Z,92.85
2022-11-16T07:10:04.106Z,92.80
2022-11-16T07:12:32.757Z,92.85
2022-11-16T07:15:01.012Z,92.97
2022-11-16T07:17:29.757Z,92.90
2022-11-16T07:19:58.435Z,93.07
2022-11-16T07:22:26.469Z,93.03
2022-11-16T07:24:54.494Z,93.12
2022-11-16T07:27:22.295Z,93.04
2022-11-16T07:29:51.500Z,93.24
2022-11-16T07:32:39.900Z,93.08
2022-11-16T07:35:37.317Z,93.03
2022-11-16T07:38:05.131Z,93.17
2022-11-16T07:40:33.058Z,93.28
2022-11-16T07:43:01.495Z,93.36
2022-11-16T07:45:53.237Z,93.48
2022-11-16T07:48:21.078Z,93.20
2022-11-16T07:51:13.551Z,92.96
2022-11-16T07:53:44.682Z,93.12
2022-11-16T07:56:13.302Z,93.21
2022-11-16T07:58:41.594Z,93.18
2022-11-16T08:01:14.463Z,93.30
2022-11-16T08:03:45.625Z,93.19
2022-11-16T08:06:20.529Z,93.08
2022-11-16T08:08:50.416Z,93.17
2022-11-16T08:11:21.718Z,93.19
2022-11-16T08:13:51.086Z,93.12
2022-11-16T08:16:22.353Z,93.11
2022-11-16T08:18:52.422Z,93.03
2022-11-16T08:21:20.357Z,93.06
2022-11-16T08:23:48.773Z,92.91
2022-11-16T08:26:22.007Z,92.85
2022-11-16T08:28:56.673Z,92.79
2022-11-16T08:31:29.964Z,92.83
2022-11-16T08:34:06.460Z,92.79
2022-11-16T08:36:34.718Z,92.87
2022-11-16T08:39:02.797Z,92.85
2022-11-16T08:41:32.375Z,92.83
2022-11-16T08:44:01.180Z,92.74
2022-11-16T08:46:29.453Z,92.56
2022-11-16T08:49:04.309Z,92.65
2022-11-16T08:51:32.089Z,92.67
2022-11-16T08:54:05.273Z,92.58
2022-11-16T08:56:33.773Z,92.27
2022-11-16T08:59:01.582Z,92.56
2022-11-16T09:01:31.412Z,92.45
2022-11-16T09:04:00.435Z,92.60
2022-11-16T09:06:28.396Z,92.19
2022-11-16T09:08:56.625Z,92.23
2022-11-16T09:11:25.727Z,92.29
2022-11-16T09:13:56.066Z,92.35
2022-11-16T09:16:24.127Z,92.30
2022-11-16T09:18:52.410Z,92.26
2022-11-16T09:21:23.122Z,92.25
2022-11-16T09:23:51.985Z,92.22
2022-11-16T09:26:22.874Z,92.05
2022-11-16T09:29:00.709Z,92.20
2022-11-16T09:31:34.107Z,92.18
2022-11-16T09:34:02.869Z,91.98
2022-11-16T09:36:31.240Z,91.89
2022-11-16T09:42:15.422Z,92.12
2022-11-16T09:44:59.883Z,91.84
2022-11-16T09:47:54.001Z,91.73
2022-11-16T09:50:37.253Z,91.84
2022-11-16T09:53:26.378Z,91.85
2022-11-16T09:56:01.302Z,91.50
2022-11-16T09:58:55.607Z,91.35
2022-11-16T10:01:52.596Z,91.22
2022-11-16T10:04:40.510Z,91.22
2022-11-16T10:07:17.678Z,90.84
2022-11-16T10:09:46.945Z,90.75
2022-11-16T10:12:51.836Z,91.12
2022-11-16T10:15:53.437Z,91.00
2022-11-16T10:18:57.234Z,91.02
2022-11-16T10:21:51.824Z,90.81
2022-11-16T10:24:50.980Z,90.76
2022-11-16T10:27:38.218Z,91.23
2022-11-16T10:30:14.794Z,91.05
2022-11-16T10:33:00.434Z,91.23
2022-11-16T10:35:37.099Z,91.37
2022-11-16T10:38:18.488Z,91.28
2022-11-16T10:40:54.772Z,91.20
2022-11-16T10:43:31.599Z,91.16
2022-11-16T10:46:39.654Z,91.12
2022-11-16T10:49:27.185Z,91.19
2022-11-16T10:51:55.233Z,91.34
2022-11-16T10:54:22.969Z,91.67
2022-11-16T10:57:05.997Z,91.52
2022-11-16T10:59:47.312Z,91.06
2022-11-16T11:02:34.647Z,91.17
2022-11-16T11:05:20.723Z,91.11
2022-11-16T11:08:04.728Z,90.90
2022-11-16T11:10:38.668Z,91.08
2022-11-16T11:13:12.283Z,91.15
2022-11-16T11:15:43.027Z,90.83
2022-11-16T11:18:31.518Z,90.67
2022-11-16T11:21:19.335Z,90.53
2022-11-16T11:23:54.215Z,90.59
2022-11-16T11:26:38.598Z,90.45
2022-11-16T11:29:32.017Z,90.38
2022-11-16T11:32:22.616Z,90.48
2022-11-16T11:34:57.583Z,90.49
2022-11-16T11:37:32.456Z,90.46
2022-11-16T11:40:21.365Z,90.38
2022-11-16T11:43:04.601Z,90.81
2022-11-16T11:45:41.328Z,90.48
2022-11-16T11:48:34.198Z,90.54
2022-11-16T11:51:22.609Z,90.11
2022-11-16T11:53:56.988Z,90.40
2022-11-16T11:56:28.340Z,90.61
2022-11-16T11:58:56.641Z,90.76
2022-11-16T12:02:10.863Z,90.64
2022-11-16T12:05:07.955Z,90.74
2022-11-16T12:08:14.870Z,90.55
2022-11-16T12:11:21.372Z,90.76
2022-11-16T12:13:54.263Z,90.69
2022-11-16T12:16:48.093Z,90.32
2022-11-16T12:19:45.200Z,89.96
2022-11-16T12:22:27.126Z,88.54
2022-11-16T12:25:37.002Z,88.73
2022-11-16T12:28:26.837Z,88.42
2022-11-16T12:30:57.798Z,87.95
2022-11-16T12:33:56.079Z,88.03
2022-11-16T12:36:48.835Z,87.33
2022-11-16T12:39:20.508Z,87.26
2022-11-16T12:42:02.205Z,87.53
2022-11-16T12:44:57.137Z,87.84
2022-11-16T12:47:48.449Z,87.82
2022-11-16T12:50:37.291Z,87.82
2022-11-16T12:53:39.310Z,88.16
2022-11-16T12:56:21.513Z,88.35
2022-11-16T12:59:01.006Z,87.80
2022-11-16T13:01:54.050Z,87.74
2022-11-16T13:04:35.335Z,88.16
2022-11-16T13:07:17.888Z,88.31
2022-11-16T13:09:55.820Z,88.58
2022-11-16T13:12:26.561Z,87.94
2022-11-16T13:14:58.559Z,88.18
2022-11-16T13:17:34.640Z,88.07
2022-11-16T13:20:35.431Z,88.29
2022-11-16T13:23:33.530Z,87.39
2022-11-16T13:26:10.394Z,87.81
2022-11-16T13:29:45.724Z,87.23
2022-11-16T13:32:47.221Z,87.85
2022-11-16T13:35:18.446Z,87.60
2022-11-16T13:37:51.643Z,87.30
2022-11-16T13:40:33.134Z,87.64
2022-11-16T13:43:06.080Z,87.46
2022-11-16T13:45:40.837Z,88.24
2022-11-16T13:48:25.086Z,87.41
2022-11-16T13:51:00.523Z,87.45
2022-11-16T13:56:51.591Z,87.58
2022-11-16T13:59:28.333Z,87.87
2022-11-16T14:02:00.681Z,87.38
2022-11-16T14:04:54.897Z,87.30
2022-11-16T14:07:37.557Z,86.62
2022-11-16T14:10:06.213Z,86.72
2022-11-16T14:12:54.635Z,86.12
2022-11-16T14:15:32.652Z,86.69
2022-11-16T14:18:12.014Z,87.27
2022-11-16T14:20:52.890Z,87.16
2022-11-16T14:23:45.785Z,87.53
2022-11-16T14:26:42.271Z,87.33
2022-11-16T14:29:20.584Z,87.19
2022-11-16T14:31:57.648Z,87.29
2022-11-16T14:34:42.186Z,87.24
2022-11-16T14:37:22.181Z,87.52
2022-11-16T14:40:01.905Z,87.53
2022-11-16T14:42:48.421Z,87.57
2022-11-16T14:45:29.415Z,87.90
2022-11-16T14:48:17.733Z,88.15
2022-11-16T14:51:26.323Z,88.12
2022-11-16T14:54:00.879Z,88.35
2022-11-16T14:56:28.646Z,88.55
2022-11-16T14:59:02.266Z,88.34
2022-11-16T15:01:38.991Z,88.26
2022-11-16T15:04:11.196Z,88.17
2022-11-16T15:06:47.148Z,88.35
2022-11-16T15:09:26.007Z,88.37
2022-11-16T15:12:13.957Z,88.48
2022-11-16T15:14:50.766Z,88.37
2022-11-16T15:17:30.097Z,88.40
2022-11-16T15:20:14.122Z,88.29
2022-11-16T15:22:47.435Z,88.03
2022-11-16T15:25:41.732Z,88.25
2022-11-16T15:28:21.037Z,88.62
2022-11-16T15:30:54.667Z,88.74
2022-11-16T15:33:33.861Z,88.78
2022-11-16T15:36:20.992Z,88.61
2022-11-16T15:38:54.453Z,88.52
2022-11-16T15:41:25.411Z,88.60
2022-11-16T15:44:13.485Z,88.86
2022-11-16T15:46:47.685Z,88.98
2022-11-16T15:49:37.988Z,89.02
2022-11-16T15:52:06.452Z,89.19
2022-11-16T15:54:54.923Z,89.31
2022-11-16T15:57:24.556Z,89.39
2022-11-16T15:59:59.794Z,89.41
2022-11-16T16:02:30.582Z,89.41
2022-11-16T16:04:58.487Z,89.64
2022-11-16T16:07:43.965Z,89.57
2022-11-16T16:10:20.774Z,89.41
2022-11-16T16:12:54.888Z,89.74
2022-11-16T16:15:29.992Z,89.79
2022-11-16T16:17:58.997Z,89.80
2022-11-16T16:20:31.878Z,89.72
2022-11-16T16:23:15.844Z,89.73
2022-11-16T16:25:50.142Z,89.77
2022-11-16T16:28:18.568Z,89.81
2022-11-16T16:30:46.443Z,89.77
2022-11-16T16:33:19.690Z,89.93
2022-11-16T16:35:49.814Z,89.72
2022-11-16T16:38:17.590Z,89.59
2022-11-16T16:40:45.382Z,89.33
2022-11-16T16:43:13.201Z,89.46
2022-11-16T16:45:43.824Z,89.32
2022-11-16T16:48:12.664Z,89.27
2022-11-16T16:50:40.699Z,88.79
2022-11-16T16:53:12.793Z,89.00
2022-11-16T16:55:42.828Z,89.02
2022-11-16T16:58:13.317Z,89.22
2022-11-16T17:00:41.992Z,89.31
2022-11-16T17:03:10.323Z,89.20
2022-11-16T17:05:38.093Z,89.20
2022-11-16T17:08:06.334Z,89.29
2022-11-16T17:10:34.417Z,89.18
2022-11-16T17:13:03.165Z,89.15
2022-11-16T17:15:31.155Z,89.14
2022-11-16T17:17:59.876Z,89.28
2022-11-16T17:20:27.893Z,89.62
2022-11-16T17:22:55.862Z,89.35
2022-11-16T17:25:23.782Z,89.36
2022-11-16T17:27:51.860Z,89.59
2022-11-16T17:30:19.895Z,89.70
2022-11-16T17:32:47.729Z,89.81
2022-11-16T17:35:15.987Z,89.76
2022-11-16T17:37:43.881Z,89.76
2022-11-16T17:40:12.488Z,89.88
2022-11-16T17:42:40.370Z,89.98
2022-11-16T17:45:08.773Z,89.91
2022-11-16T17:47:36.551Z,89.99
2022-11-16T17:50:04.715Z,90.21
2022-11-16T17:52:32.463Z,90.36
2022-11-16T17:55:00.287Z,90.43
2022-11-16T17:57:28.628Z,90.59
2022-11-16T17:59:56.452Z,90.57
2022-11-16T18:02:24.229Z,90.71
2022-11-16T18:04:52.119Z,90.72
2022-11-16T18:07:20.061Z,90.81
2022-11-16T18:09:47.949Z,90.86
2022-11-16T18:12:15.716Z,90.87
2022-11-16T18:14:59.854Z,90.95
2022-11-16T18:17:31.458Z,91.00
2022-11-16T18:19:59.227Z,91.02
2022-11-16T18:22:26.953Z,90.95
2022-11-16T18:24:54.673Z,90.96
2022-11-16T18:27:22.554Z,91.10
2022-11-16T18:29:50.717Z,91.11
2022-11-16T18:32:19.873Z,91.22
2022-11-16T18:34:48.459Z,91.28
2022-11-16T18:37:16.292Z,91.38
2022-11-16T18:39:44.585Z,91.51
2022-11-16T18:42:12.570Z,91.54
2022-11-16T18:44:40.298Z,91.57
2022-11-16T18:47:08.135Z,91.68
2022-11-16T18:49:36.064Z,91.69
2022-11-16T18:52:04.095Z,91.72
2022-11-16T18:54:31.877Z,91.76
2022-11-16T18:56:59.758Z,91.78
2022-11-16T18:59:27.672Z,91.83
2022-11-16T19:01:55.564Z,91.84
2022-11-16T19:04:23.801Z,91.98
2022-11-16T19:06:52.590Z,91.89
2022-11-16T19:09:22.975Z,92.01
2022-11-16T19:11:52.776Z,91.94
2022-11-16T19:14:21.627Z,92.01
2022-11-16T19:16:55.710Z,91.98
2022-11-16T19:19:27.697Z,92.12
2022-11-16T19:21:56.996Z,92.18
2022-11-16T19:24:24.788Z,92.22
2022-11-16T19:26:52.727Z,92.34
2022-11-16T19:29:20.495Z,92.44
2022-11-16T19:31:48.465Z,92.41
2022-11-16T19:34:16.260Z,92.47
2022-11-16T19:36:44.006Z,92.49
2022-11-16T19:39:11.833Z,92.54
2022-11-16T19:41:39.650Z,92.60
2022-11-16T19:44:07.432Z,92.60
2022-11-16T19:46:36.575Z,92.59
2022-11-16T19:49:05.005Z,92.54
2022-11-16T19:51:33.985Z,92.50
2022-11-16T19:54:02.886Z,92.38
2022-11-16T19:56:31.377Z,92.26
2022-11-16T19:59:00.534Z,92.25
2022-11-16T20:01:29.398Z,92.14
2022-11-16T20:04:02.310Z,92.24
2022-11-16T20:06:34.083Z,92.27
2022-11-16T20:09:08.902Z,92.38
2022-11-16T20:11:40.786Z,92.42
2022-11-16T20:14:11.945Z,92.50
2022-11-16T20:16:42.997Z,92.49
2022-11-16T20:19:11.560Z,92.44
2022-11-16T20:21:42.633Z,92.47
2022-11-16T20:24:18.000Z,92.49
2022-11-16T20:26:49.264Z,92.54
2022-11-16T20:29:19.523Z,92.61
2022-11-16T20:31:47.800Z,92.64
2022-11-16T20:34:17.733Z,92.67
2022-11-16T20:36:47.756Z,92.79
2022-11-16T20:39:20.605Z,92.83
2022-11-16T20:41:49.118Z,92.76
2022-11-16T20:44:21.167Z,92.80
2022-11-16T20:46:52.199Z,92.79
2022-11-16T20:49:20.375Z,92.84
2022-11-16T20:51:49.640Z,92.91
2022-11-16T20:54:17.627Z,92.88
2022-11-16T20:56:45.511Z,92.89
2022-11-16T20:59:13.510Z,92.91
2022-11-16T21:01:44.809Z,92.92
2022-11-16T21:04:12.842Z,92.92
2022-11-16T21:06:40.653Z,92.95
2022-11-16T21:09:12.350Z,92.92
2022-11-16T21:11:58.834Z,92.92
2022-11-16T21:14:26.769Z,93.00
2022-11-16T21:16:54.672Z,93.02
2022-11-16T21:19:22.526Z,93.12
2022-11-16T21:21:50.383Z,93.15
2022-11-16T21:24:18.297Z,93.25
2022-11-16T21:26:46.219Z,93.29
2022-11-16T21:29:14.039Z,93.25
2022-11-16T21:31:41.888Z,93.30
2022-11-16T21:34:09.719Z,93.35
2022-11-16T21:36:37.487Z,93.33
2022-11-16T21:39:05.921Z,93.40
2022-11-16T21:41:34.547Z,93.46
2022-11-16T21:44:02.330Z,93.49
2022-11-16T21:46:30.275Z,93.48
2022-11-16T21:48:58.129Z,93.53
2022-11-16T21:51:27.550Z,93.52
2022-11-16T21:53:55.591Z,93.50
2022-11-16T21:56:26.293Z,93.57
2022-11-16T21:58:54.459Z,93.63
2022-11-16T22:01:24.015Z,93.58
2022-11-16T22:04:10.896Z,93.63
2022-11-16T22:06:57.722Z,93.68
2022-11-16T22:09:25.541Z,93.60
2022-11-16T22:11:53.673Z,93.61
2022-11-16T22:14:21.531Z,93.69
2022-11-16T22:16:49.357Z,93.72
2022-11-16T22:19:17.297Z,93.65
2022-11-16T22:21:45.189Z,93.66
2022-11-16T22:24:12.973Z,93.71
2022-11-16T22:26:41.087Z,93.62
2022-11-16T22:29:08.979Z,93.76
2022-11-16T22:31:36.929Z,93.72
2022-11-16T22:34:04.774Z,93.74
2022-11-16T22:36:32.498Z,93.66
2022-11-16T22:39:00.958Z,93.52
2022-11-16T22:41:29.025Z,93.51
2022-11-16T22:43:56.805Z,93.56
2022-11-16T22:46:24.574Z,93.47
2022-11-16T22:48:52.366Z,93.60
2022-11-16T22:51:30.885Z,93.47
2022-11-16T22:54:04.927Z,93.91
2022-11-16T22:56:33.871Z,94.02
2022-11-16T22:59:02.689Z,93.68
2022-11-16T23:01:30.497Z,93.93
2022-11-16T23:03:58.969Z,93.96
2022-11-16T23:06:26.865Z,93.96
2022-11-16T23:08:55.028Z,94.05
2022-11-16T23:11:44.211Z,94.32
2022-11-16T23:14:34.846Z,94.23
2022-11-16T23:17:04.631Z,94.04
2022-11-16T23:19:53.094Z,93.89
2022-11-16T23:22:40.641Z,93.85
2022-11-16T23:25:30.245Z,93.72
2022-11-16T23:28:12.901Z,93.99
2022-11-16T23:30:41.201Z,93.62
2022-11-16T23:33:10.536Z,93.84
2022-11-16T23:35:38.375Z,93.87
2022-11-16T23:38:07.996Z,93.78
2022-11-16T23:40:39.043Z,93.58
2022-11-16T23:43:28.912Z,93.43
2022-11-16T23:45:56.866Z,93.40
2022-11-16T23:48:24.749Z,93.42
2022-11-16T23:50:52.596Z,93.39
2022-11-16T23:53:20.424Z,93.38
2022-11-16T23:55:48.336Z,93.44
2022-11-16T23:58:16.738Z,93.68
